sensor_id;sensor_type;location;lat;lon;timestamp;P1;durP1;ratioP1;P2;durP2;ratioP2
12232;SDS011;6179;51.748;8.728;2023-06-19T00:05:51;8.57;;;5.20;;
12232;SDS011;6179;51.748;8.728;2023-06-19T00:11:52;8.60;;;4.60;;
12232;SDS011;6179;51.748;8.728;2023-06-19T00:17:52;12.63;;;5.87;;
12232;SDS011;6179;51.748;8.728;2023-06-19T00:23:53;9.27;;;4.73;;
12232;SDS011;6179;51.748;8.728;2023-06-19T00:29:54;10.93;;;4.47;;
12232;SDS011;6179;51.748;8.728;2023-06-19T00:36:01;15.43;;;5.93;;
12232;SDS011;6179;51.748;8.728;2023-06-19T00:42:02;13.47;;;4.77;;
12232;SDS011;6179;51.748;8.728;2023-06-19T00:48:03;12.37;;;5.27;;
12232;SDS011;6179;51.748;8.728;2023-06-19T00:54:04;15.40;;;5.00;;
12232;SDS011;6179;51.748;8.728;2023-06-19T01:00:07;8.47;;;4.77;;
12232;SDS011;6179;51.748;8.728;2023-06-19T01:06:10;6.97;;;4.07;;
12232;SDS011;6179;51.748;8.728;2023-06-19T01:12:22;7.03;;;4.57;;
12232;SDS011;6179;51.748;8.728;2023-06-19T01:18:34;8.97;;;3.83;;
12232;SDS011;6179;51.748;8.728;2023-06-19T01:24:37;17.13;;;6.07;;
12232;SDS011;6179;51.748;8.728;2023-06-19T01:30:39;8.00;;;3.97;;
12232;SDS011;6179;51.748;8.728;2023-06-19T01:36:42;10.00;;;4.60;;
12232;SDS011;6179;51.748;8.728;2023-06-19T01:42:43;9.60;;;6.13;;
12232;SDS011;6179;51.748;8.728;2023-06-19T01:48:45;7.20;;;4.50;;
12232;SDS011;6179;51.748;8.728;2023-06-19T01:54:45;6.43;;;4.33;;
12232;SDS011;6179;51.748;8.728;2023-06-19T02:00:46;7.40;;;3.60;;
12232;SDS011;6179;51.748;8.728;2023-06-19T02:06:47;11.43;;;5.17;;
12232;SDS011;6179;51.748;8.728;2023-06-19T02:12:48;3.63;;;2.97;;
12232;SDS011;6179;51.748;8.728;2023-06-19T02:18:48;6.30;;;3.07;;
12232;SDS011;6179;51.748;8.728;2023-06-19T02:24:49;9.23;;;4.00;;
12232;SDS011;6179;51.748;8.728;2023-06-19T02:30:52;14.37;;;5.63;;
12232;SDS011;6179;51.748;8.728;2023-06-19T02:36:54;6.37;;;3.20;;
12232;SDS011;6179;51.748;8.728;2023-06-19T02:42:55;4.33;;;2.97;;
12232;SDS011;6179;51.748;8.728;2023-06-19T02:48:55;7.63;;;4.37;;
12232;SDS011;6179;51.748;8.728;2023-06-19T02:54:56;5.80;;;3.57;;
12232;SDS011;6179;51.748;8.728;2023-06-19T03:00:57;6.87;;;4.60;;
12232;SDS011;6179;51.748;8.728;2023-06-19T03:06:58;9.77;;;4.80;;
12232;SDS011;6179;51.748;8.728;2023-06-19T03:12:59;7.67;;;4.20;;
12232;SDS011;6179;51.748;8.728;2023-06-19T03:18:59;5.63;;;3.50;;
12232;SDS011;6179;51.748;8.728;2023-06-19T03:25:01;4.37;;;3.57;;
12232;SDS011;6179;51.748;8.728;2023-06-19T03:31:02;4.73;;;3.77;;
12232;SDS011;6179;51.748;8.728;2023-06-19T03:37:03;3.50;;;3.20;;
12232;SDS011;6179;51.748;8.728;2023-06-19T03:43:04;4.53;;;3.73;;
12232;SDS011;6179;51.748;8.728;2023-06-19T03:49:05;3.83;;;2.60;;
12232;SDS011;6179;51.748;8.728;2023-06-19T03:55:06;4.83;;;4.30;;
12232;SDS011;6179;51.748;8.728;2023-06-19T04:01:07;8.63;;;4.23;;
12232;SDS011;6179;51.748;8.728;2023-06-19T04:07:08;5.50;;;4.77;;
12232;SDS011;6179;51.748;8.728;2023-06-19T04:13:08;9.43;;;5.57;;
12232;SDS011;6179;51.748;8.728;2023-06-19T04:19:09;7.93;;;4.50;;
12232;SDS011;6179;51.748;8.728;2023-06-19T04:25:10;6.87;;;5.20;;
12232;SDS011;6179;51.748;8.728;2023-06-19T04:31:11;11.57;;;5.00;;
12232;SDS011;6179;51.748;8.728;2023-06-19T04:37:12;25.80;;;6.73;;
12232;SDS011;6179;51.748;8.728;2023-06-19T04:43:13;6.17;;;4.40;;
12232;SDS011;6179;51.748;8.728;2023-06-19T04:49:13;9.37;;;5.17;;
12232;SDS011;6179;51.748;8.728;2023-06-19T04:55:14;6.40;;;5.10;;
12232;SDS011;6179;51.748;8.728;2023-06-19T05:01:15;5.83;;;3.90;;
12232;SDS011;6179;51.748;8.728;2023-06-19T05:07:16;8.33;;;4.20;;
12232;SDS011;6179;51.748;8.728;2023-06-19T05:13:18;13.97;;;5.97;;
12232;SDS011;6179;51.748;8.728;2023-06-19T05:19:18;9.10;;;4.90;;
12232;SDS011;6179;51.748;8.728;2023-06-19T05:25:19;6.10;;;4.60;;
12232;SDS011;6179;51.748;8.728;2023-06-19T05:31:20;5.10;;;3.10;;
12232;SDS011;6179;51.748;8.728;2023-06-19T05:37:21;5.40;;;2.13;;
12232;SDS011;6179;51.748;8.728;2023-06-19T05:43:22;2.93;;;2.63;;
12232;SDS011;6179;51.748;8.728;2023-06-19T05:49:24;2.37;;;2.17;;
12232;SDS011;6179;51.748;8.728;2023-06-19T05:55:25;6.10;;;3.03;;
12232;SDS011;6179;51.748;8.728;2023-06-19T06:01:27;5.90;;;2.40;;
12232;SDS011;6179;51.748;8.728;2023-06-19T06:07:28;2.80;;;2.50;;
12232;SDS011;6179;51.748;8.728;2023-06-19T06:13:30;3.07;;;2.20;;
12232;SDS011;6179;51.748;8.728;2023-06-19T06:19:31;4.37;;;2.07;;
12232;SDS011;6179;51.748;8.728;2023-06-19T06:25:31;2.87;;;2.67;;
12232;SDS011;6179;51.748;8.728;2023-06-19T06:31:32;1.80;;;1.33;;
12232;SDS011;6179;51.748;8.728;2023-06-19T06:37:34;3.03;;;2.20;;
12232;SDS011;6179;51.748;8.728;2023-06-19T06:43:35;2.30;;;1.63;;
12232;SDS011;6179;51.748;8.728;2023-06-19T06:49:36;2.40;;;1.93;;
12232;SDS011;6179;51.748;8.728;2023-06-19T06:55:37;2.50;;;1.30;;
12232;SDS011;6179;51.748;8.728;2023-06-19T07:01:37;5.37;;;1.67;;
12232;SDS011;6179;51.748;8.728;2023-06-19T07:07:38;3.70;;;2.47;;
12232;SDS011;6179;51.748;8.728;2023-06-19T07:13:39;2.33;;;1.83;;
12232;SDS011;6179;51.748;8.728;2023-06-19T07:19:41;3.77;;;1.60;;
12232;SDS011;6179;51.748;8.728;2023-06-19T07:25:42;2.63;;;2.00;;
12232;SDS011;6179;51.748;8.728;2023-06-19T07:31:42;4.00;;;2.93;;
12232;SDS011;6179;51.748;8.728;2023-06-19T07:37:44;2.43;;;2.23;;
12232;SDS011;6179;51.748;8.728;2023-06-19T07:43:45;3.20;;;2.23;;
12232;SDS011;6179;51.748;8.728;2023-06-19T07:49:46;3.67;;;2.50;;
12232;SDS011;6179;51.748;8.728;2023-06-19T07:55:47;1.57;;;1.47;;
12232;SDS011;6179;51.748;8.728;2023-06-19T08:01:48;3.13;;;1.30;;
12232;SDS011;6179;51.748;8.728;2023-06-19T08:07:48;2.80;;;1.73;;
12232;SDS011;6179;51.748;8.728;2023-06-19T08:13:49;1.97;;;1.33;;
12232;SDS011;6179;51.748;8.728;2023-06-19T08:19:50;2.50;;;1.20;;
12232;SDS011;6179;51.748;8.728;2023-06-19T08:25:51;1.20;;;1.00;;
12232;SDS011;6179;51.748;8.728;2023-06-19T08:31:51;4.87;;;1.00;;
12232;SDS011;6179;51.748;8.728;2023-06-19T08:37:52;1.67;;;1.00;;
12232;SDS011;6179;51.748;8.728;2023-06-19T08:43:53;1.00;;;1.00;;
12232;SDS011;6179;51.748;8.728;2023-06-19T08:49:55;1.30;;;1.07;;
12232;SDS011;6179;51.748;8.728;2023-06-19T08:55:55;4.00;;;3.60;;
12232;SDS011;6179;51.748;8.728;2023-06-19T09:01:57;4.30;;;1.10;;
12232;SDS011;6179;51.748;8.728;2023-06-19T09:07:58;0.90;;;0.80;;
12232;SDS011;6179;51.748;8.728;2023-06-19T09:14:00;1.17;;;1.07;;
12232;SDS011;6179;51.748;8.728;2023-06-19T09:20:01;1.10;;;0.67;;
12232;SDS011;6179;51.748;8.728;2023-06-19T09:26:05;0.60;;;0.60;;
12232;SDS011;6179;51.748;8.728;2023-06-19T09:32:22;2.10;;;0.60;;
12232;SDS011;6179;51.748;8.728;2023-06-19T09:38:25;0.90;;;0.60;;
12232;SDS011;6179;51.748;8.728;2023-06-19T09:44:29;0.83;;;0.70;;
12232;SDS011;6179;51.748;8.728;2023-06-19T09:50:39;0.57;;;0.57;;
12232;SDS011;6179;51.748;8.728;2023-06-19T09:56:41;0.90;;;0.80;;
12232;SDS011;6179;51.748;8.728;2023-06-19T10:02:43;0.80;;;0.80;;
12232;SDS011;6179;51.748;8.728;2023-06-19T10:08:46;1.67;;;0.70;;
12232;SDS011;6179;51.748;8.728;2023-06-19T10:14:47;1.27;;;0.90;;
12232;SDS011;6179;51.748;8.728;2023-06-19T10:20:49;0.93;;;0.80;;
12232;SDS011;6179;51.748;8.728;2023-06-19T10:27:00;3.17;;;1.20;;
12232;SDS011;6179;51.748;8.728;2023-06-19T10:33:02;0.67;;;0.67;;
12232;SDS011;6179;51.748;8.728;2023-06-19T10:39:03;1.83;;;0.90;;
12232;SDS011;6179;51.748;8.728;2023-06-19T10:45:05;1.70;;;0.80;;
12232;SDS011;6179;51.748;8.728;2023-06-19T10:51:13;0.70;;;0.70;;
12232;SDS011;6179;51.748;8.728;2023-06-19T10:57:26;2.40;;;1.10;;
12232;SDS011;6179;51.748;8.728;2023-06-19T11:03:31;1.20;;;0.80;;
12232;SDS011;6179;51.748;8.728;2023-06-19T11:09:32;1.20;;;0.90;;
12232;SDS011;6179;51.748;8.728;2023-06-19T11:15:33;1.10;;;0.70;;
12232;SDS011;6179;51.748;8.728;2023-06-19T11:21:36;1.20;;;0.80;;
12232;SDS011;6179;51.748;8.728;2023-06-19T11:27:38;8.73;;;0.90;;
12232;SDS011;6179;51.748;8.728;2023-06-19T11:33:39;0.50;;;0.50;;
12232;SDS011;6179;51.748;8.728;2023-06-19T11:39:41;0.70;;;0.70;;
12232;SDS011;6179;51.748;8.728;2023-06-19T11:45:45;0.50;;;0.50;;
12232;SDS011;6179;51.748;8.728;2023-06-19T11:51:49;1.57;;;0.83;;
12232;SDS011;6179;51.748;8.728;2023-06-19T11:57:50;0.87;;;0.87;;
12232;SDS011;6179;51.748;8.728;2023-06-19T12:03:51;1.17;;;0.70;;
12232;SDS011;6179;51.748;8.728;2023-06-19T12:09:52;0.50;;;0.50;;
12232;SDS011;6179;51.748;8.728;2023-06-19T12:15:52;2.30;;;0.60;;
12232;SDS011;6179;51.748;8.728;2023-06-19T12:21:53;0.73;;;0.73;;
12232;SDS011;6179;51.748;8.728;2023-06-19T12:27:55;0.80;;;0.80;;
12232;SDS011;6179;51.748;8.728;2023-06-19T12:33:56;1.00;;;0.90;;
12232;SDS011;6179;51.748;8.728;2023-06-19T12:39:57;0.90;;;0.80;;
12232;SDS011;6179;51.748;8.728;2023-06-19T12:45:58;1.03;;;0.90;;
12232;SDS011;6179;51.748;8.728;2023-06-19T12:51:59;2.27;;;0.93;;
12232;SDS011;6179;51.748;8.728;2023-06-19T12:58:00;0.93;;;0.93;;
12232;SDS011;6179;51.748;8.728;2023-06-19T13:04:01;1.97;;;1.10;;
12232;SDS011;6179;51.748;8.728;2023-06-19T13:10:02;2.80;;;0.80;;
12232;SDS011;6179;51.748;8.728;2023-06-19T13:16:06;2.30;;;1.30;;
12232;SDS011;6179;51.748;8.728;2023-06-19T13:22:06;1.70;;;0.70;;
12232;SDS011;6179;51.748;8.728;2023-06-19T13:28:08;3.60;;;1.17;;
12232;SDS011;6179;51.748;8.728;2023-06-19T13:34:09;1.10;;;0.80;;
12232;SDS011;6179;51.748;8.728;2023-06-19T13:40:09;4.50;;;1.57;;
12232;SDS011;6179;51.748;8.728;2023-06-19T13:46:11;3.63;;;1.00;;
12232;SDS011;6179;51.748;8.728;2023-06-19T13:52:13;1.23;;;1.07;;
12232;SDS011;6179;51.748;8.728;2023-06-19T13:58:14;2.43;;;1.07;;
12232;SDS011;6179;51.748;8.728;2023-06-19T14:04:14;1.17;;;1.07;;
12232;SDS011;6179;51.748;8.728;2023-06-19T14:10:15;0.87;;;0.87;;
12232;SDS011;6179;51.748;8.728;2023-06-19T14:16:16;1.53;;;1.00;;
12232;SDS011;6179;51.748;8.728;2023-06-19T14:22:19;3.80;;;1.37;;
12232;SDS011;6179;51.748;8.728;2023-06-19T14:28:20;2.30;;;1.07;;
12232;SDS011;6179;51.748;8.728;2023-06-19T14:34:22;1.70;;;1.10;;
12232;SDS011;6179;51.748;8.728;2023-06-19T14:40:23;1.07;;;0.93;;
12232;SDS011;6179;51.748;8.728;2023-06-19T14:46:24;2.63;;;1.00;;
12232;SDS011;6179;51.748;8.728;2023-06-19T14:52:25;1.17;;;1.07;;
12232;SDS011;6179;51.748;8.728;2023-06-19T14:58:25;4.10;;;1.00;;
12232;SDS011;6179;51.748;8.728;2023-06-19T15:04:28;4.00;;;1.70;;
12232;SDS011;6179;51.748;8.728;2023-06-19T15:10:29;2.40;;;0.80;;
12232;SDS011;6179;51.748;8.728;2023-06-19T15:16:30;0.90;;;0.90;;
12232;SDS011;6179;51.748;8.728;2023-06-19T15:22:30;0.80;;;0.80;;
12232;SDS011;6179;51.748;8.728;2023-06-19T15:28:34;1.20;;;0.83;;
12232;SDS011;6179;51.748;8.728;2023-06-19T15:34:38;1.10;;;1.00;;
12232;SDS011;6179;51.748;8.728;2023-06-19T15:40:40;1.00;;;0.80;;
12232;SDS011;6179;51.748;8.728;2023-06-19T15:46:41;6.83;;;1.23;;
12232;SDS011;6179;51.748;8.728;2023-06-19T15:52:42;8.33;;;1.10;;
12232;SDS011;6179;51.748;8.728;2023-06-19T15:58:43;0.93;;;0.93;;
12232;SDS011;6179;51.748;8.728;2023-06-19T16:04:44;1.07;;;0.73;;
12232;SDS011;6179;51.748;8.728;2023-06-19T16:10:45;3.03;;;1.17;;
12232;SDS011;6179;51.748;8.728;2023-06-19T16:16:47;1.43;;;0.80;;
12232;SDS011;6179;51.748;8.728;2023-06-19T16:22:48;2.17;;;0.93;;
12232;SDS011;6179;51.748;8.728;2023-06-19T16:28:52;1.10;;;0.80;;
12232;SDS011;6179;51.748;8.728;2023-06-19T16:34:53;1.60;;;0.97;;
12232;SDS011;6179;51.748;8.728;2023-06-19T16:40:54;1.20;;;1.10;;
12232;SDS011;6179;51.748;8.728;2023-06-19T16:46:54;1.00;;;0.90;;
12232;SDS011;6179;51.748;8.728;2023-06-19T16:52:55;1.63;;;1.53;;
12232;SDS011;6179;51.748;8.728;2023-06-19T16:58:57;2.07;;;1.37;;
12232;SDS011;6179;51.748;8.728;2023-06-19T17:04:59;3.90;;;1.20;;
12232;SDS011;6179;51.748;8.728;2023-06-19T17:11:00;2.47;;;1.40;;
12232;SDS011;6179;51.748;8.728;2023-06-19T17:17:01;1.20;;;1.10;;
12232;SDS011;6179;51.748;8.728;2023-06-19T17:23:02;1.97;;;1.87;;
12232;SDS011;6179;51.748;8.728;2023-06-19T17:29:02;5.60;;;1.87;;
12232;SDS011;6179;51.748;8.728;2023-06-19T17:35:04;1.53;;;1.43;;
12232;SDS011;6179;51.748;8.728;2023-06-19T17:41:08;1.80;;;1.70;;
12232;SDS011;6179;51.748;8.728;2023-06-19T17:47:09;1.50;;;1.37;;
12232;SDS011;6179;51.748;8.728;2023-06-19T17:53:10;2.60;;;2.17;;
12232;SDS011;6179;51.748;8.728;2023-06-19T17:59:11;3.30;;;1.60;;
12232;SDS011;6179;51.748;8.728;2023-06-19T18:05:15;1.57;;;1.30;;
12232;SDS011;6179;51.748;8.728;2023-06-19T18:11:16;1.67;;;1.43;;
12232;SDS011;6179;51.748;8.728;2023-06-19T18:17:17;4.00;;;1.50;;
12232;SDS011;6179;51.748;8.728;2023-06-19T18:23:18;2.27;;;1.60;;
12232;SDS011;6179;51.748;8.728;2023-06-19T18:29:18;1.80;;;1.70;;
12232;SDS011;6179;51.748;8.728;2023-06-19T18:35:20;2.30;;;2.10;;
12232;SDS011;6179;51.748;8.728;2023-06-19T18:41:21;1.40;;;1.30;;
12232;SDS011;6179;51.748;8.728;2023-06-19T18:47:22;3.27;;;1.63;;
12232;SDS011;6179;51.748;8.728;2023-06-19T18:53:23;3.23;;;2.00;;
12232;SDS011;6179;51.748;8.728;2023-06-19T18:59:24;2.80;;;2.07;;
12232;SDS011;6179;51.748;8.728;2023-06-19T19:05:25;1.87;;;1.77;;
12232;SDS011;6179;51.748;8.728;2023-06-19T19:11:25;1.90;;;1.80;;
12232;SDS011;6179;51.748;8.728;2023-06-19T19:17:26;3.70;;;2.00;;
12232;SDS011;6179;51.748;8.728;2023-06-19T19:23:27;1.90;;;1.70;;
12232;SDS011;6179;51.748;8.728;2023-06-19T19:29:28;8.60;;;1.90;;
12232;SDS011;6179;51.748;8.728;2023-06-19T19:35:28;7.13;;;2.87;;
12232;SDS011;6179;51.748;8.728;2023-06-19T19:41:29;2.40;;;2.13;;
12232;SDS011;6179;51.748;8.728;2023-06-19T19:47:31;2.20;;;1.60;;
12232;SDS011;6179;51.748;8.728;2023-06-19T19:53:31;3.83;;;1.90;;
12232;SDS011;6179;51.748;8.728;2023-06-19T19:59:32;2.37;;;2.17;;
12232;SDS011;6179;51.748;8.728;2023-06-19T20:05:34;4.33;;;2.30;;
12232;SDS011;6179;51.748;8.728;2023-06-19T20:11:35;2.03;;;1.87;;
12232;SDS011;6179;51.748;8.728;2023-06-19T20:17:36;2.47;;;1.90;;
12232;SDS011;6179;51.748;8.728;2023-06-19T20:23:36;2.53;;;1.97;;
12232;SDS011;6179;51.748;8.728;2023-06-19T20:29:37;4.70;;;2.80;;
12232;SDS011;6179;51.748;8.728;2023-06-19T20:35:38;3.37;;;2.73;;
12232;SDS011;6179;51.748;8.728;2023-06-19T20:41:39;3.47;;;2.77;;
12232;SDS011;6179;51.748;8.728;2023-06-19T20:47:40;2.10;;;1.90;;
12232;SDS011;6179;51.748;8.728;2023-06-19T20:53:41;3.80;;;2.93;;
12232;SDS011;6179;51.748;8.728;2023-06-19T20:59:41;6.67;;;3.53;;
12232;SDS011;6179;51.748;8.728;2023-06-19T21:05:42;3.83;;;3.47;;
12232;SDS011;6179;51.748;8.728;2023-06-19T21:11:45;2.10;;;2.00;;
12232;SDS011;6179;51.748;8.728;2023-06-19T21:17:48;3.57;;;2.70;;
12232;SDS011;6179;51.748;8.728;2023-06-19T21:23:49;3.87;;;3.00;;
12232;SDS011;6179;51.748;8.728;2023-06-19T21:29:49;2.27;;;2.13;;
12232;SDS011;6179;51.748;8.728;2023-06-19T21:35:50;2.80;;;2.37;;
12232;SDS011;6179;51.748;8.728;2023-06-19T21:41:51;4.77;;;2.83;;
12232;SDS011;6179;51.748;8.728;2023-06-19T21:47:52;5.83;;;3.20;;
12232;SDS011;6179;51.748;8.728;2023-06-19T21:53:53;7.97;;;2.60;;
12232;SDS011;6179;51.748;8.728;2023-06-19T21:59:53;4.40;;;2.60;;
12232;SDS011;6179;51.748;8.728;2023-06-19T22:05:54;7.03;;;2.40;;
12232;SDS011;6179;51.748;8.728;2023-06-19T22:11:55;8.63;;;2.63;;
12232;SDS011;6179;51.748;8.728;2023-06-19T22:17:56;5.10;;;2.60;;
12232;SDS011;6179;51.748;8.728;2023-06-19T22:24:00;4.97;;;3.00;;
12232;SDS011;6179;51.748;8.728;2023-06-19T22:30:01;3.60;;;3.23;;
12232;SDS011;6179;51.748;8.728;2023-06-19T22:36:03;2.73;;;2.30;;
12232;SDS011;6179;51.748;8.728;2023-06-19T22:42:04;5.07;;;3.00;;
12232;SDS011;6179;51.748;8.728;2023-06-19T22:48:05;7.70;;;3.30;;
12232;SDS011;6179;51.748;8.728;2023-06-19T22:54:06;3.03;;;2.83;;
12232;SDS011;6179;51.748;8.728;2023-06-19T23:00:07;3.37;;;2.80;;
12232;SDS011;6179;51.748;8.728;2023-06-19T23:06:11;5.13;;;3.77;;
12232;SDS011;6179;51.748;8.728;2023-06-19T23:12:12;6.13;;;4.97;;
12232;SDS011;6179;51.748;8.728;2023-06-19T23:18:13;8.63;;;3.77;;
12232;SDS011;6179;51.748;8.728;2023-06-19T23:24:14;3.03;;;2.80;;
12232;SDS011;6179;51.748;8.728;2023-06-19T23:30:15;4.23;;;3.83;;
12232;SDS011;6179;51.748;8.728;2023-06-19T23:36:18;3.70;;;3.40;;
12232;SDS011;6179;51.748;8.728;2023-06-19T23:42:19;8.73;;;4.57;;
12232;SDS011;6179;51.748;8.728;2023-06-19T23:48:20;5.40;;;4.70;;
12232;SDS011;6179;51.748;8.728;2023-06-19T23:54:21;7.50;;;5.60;;
